createdAt,value
2023-03-27T00:01:01.233Z,14.40
2023-03-27T00:03:29.177Z,14.40
2023-03-27T00:06:04.301Z,15.07
2023-03-27T00:08:31.608Z,14.83
2023-03-27T00:10:58.467Z,13.60
2023-03-27T00:13:25.065Z,14.40
2023-03-27T00:15:53.867Z,15.47
2023-03-27T00:18:20.459Z,16.30
2023-03-27T00:20:47.215Z,15.03
2023-03-27T00:23:13.949Z,16.30
2023-03-27T00:25:40.809Z,14.87
2023-03-27T00:28:08.414Z,15.07
2023-03-27T00:30:35.384Z,17.63
2023-03-27T00:33:03.038Z,16.40
2023-03-27T00:35:29.939Z,16.00
2023-03-27T00:37:57.201Z,17.37
2023-03-27T00:40:23.676Z,18.13
2023-03-27T00:42:51.893Z,17.30
2023-03-27T00:45:23.473Z,17.20
2023-03-27T00:48:00.662Z,15.40
2023-03-27T00:50:34.586Z,14.87
2023-03-27T00:53:06.397Z,15.87
2023-03-27T00:55:37.086Z,15.33
2023-03-27T00:58:08.328Z,14.63
2023-03-27T01:00:34.962Z,14.90
2023-03-27T01:03:05.399Z,14.77
2023-03-27T01:05:32.194Z,15.33
2023-03-27T01:08:00.933Z,14.47
2023-03-27T01:10:48.351Z,14.53
2023-03-27T01:13:34.700Z,14.23
2023-03-27T01:16:07.202Z,13.90
2023-03-27T01:18:39.727Z,13.43
2023-03-27T01:21:15.153Z,14.10
2023-03-27T01:24:00.728Z,13.07
2023-03-27T01:26:46.700Z,13.77
2023-03-27T01:29:51.059Z,12.97
2023-03-27T01:32:51.294Z,12.60
2023-03-27T01:35:23.927Z,14.27
2023-03-27T01:38:06.525Z,12.10
2023-03-27T01:40:47.240Z,11.90
2023-03-27T01:43:28.530Z,13.13
2023-03-27T01:46:00.348Z,12.43
2023-03-27T01:48:44.874Z,13.27
2023-03-27T01:51:19.172Z,11.50
2023-03-27T01:54:21.706Z,13.27
2023-03-27T01:56:55.790Z,12.40
2023-03-27T01:59:27.102Z,13.93
2023-03-27T02:01:59.206Z,14.00
2023-03-27T02:04:30.723Z,15.67
2023-03-27T02:07:00.653Z,15.13
2023-03-27T02:09:34.269Z,14.77
2023-03-27T02:12:23.465Z,15.07
2023-03-27T02:14:55.230Z,14.93
2023-03-27T02:17:26.109Z,15.20
2023-03-27T02:19:56.138Z,14.70
2023-03-27T02:22:37.236Z,15.27
2023-03-27T02:25:21.339Z,14.60
2023-03-27T02:27:48.730Z,14.10
2023-03-27T02:30:31.242Z,14.57
2023-03-27T02:33:23.355Z,14.80
2023-03-27T02:36:05.363Z,15.10
2023-03-27T02:38:45.897Z,15.67
2023-03-27T02:41:34.714Z,15.77
2023-03-27T02:44:29.932Z,14.97
2023-03-27T02:47:24.566Z,15.60
2023-03-27T02:49:54.423Z,15.77
2023-03-27T02:52:27.190Z,15.67
2023-03-27T02:54:56.753Z,16.27
2023-03-27T02:57:26.585Z,15.40
2023-03-27T02:59:56.456Z,14.47
2023-03-27T03:02:30.427Z,16.57
2023-03-27T03:05:02.249Z,15.33
2023-03-27T03:07:29.145Z,15.50
2023-03-27T03:09:55.714Z,15.90
2023-03-27T03:12:23.084Z,15.43
2023-03-27T03:14:49.638Z,17.70
2023-03-27T03:17:17.273Z,17.80
2023-03-27T03:19:43.798Z,19.00
2023-03-27T03:22:10.763Z,18.23
2023-03-27T03:24:37.471Z,18.53
2023-03-27T03:27:04.533Z,15.97
2023-03-27T03:29:35.472Z,15.93
2023-03-27T03:32:02.592Z,16.47
2023-03-27T03:34:30.380Z,15.23
2023-03-27T03:36:56.971Z,15.60
2023-03-27T03:39:23.542Z,16.07
2023-03-27T03:41:50.063Z,16.03
2023-03-27T03:44:17.036Z,16.40
2023-03-27T03:46:43.473Z,15.33
2023-03-27T03:49:10.060Z,16.90
2023-03-27T03:51:36.912Z,16.20
2023-03-27T03:54:09.121Z,16.43
2023-03-27T03:56:37.143Z,17.20
2023-03-27T03:59:04.298Z,17.23
2023-03-27T04:01:30.875Z,17.07
2023-03-27T04:03:57.528Z,18.00
2023-03-27T04:06:25.606Z,17.37
2023-03-27T04:08:53.139Z,17.47
2023-03-27T04:11:19.949Z,17.37
2023-03-27T04:13:46.552Z,18.57
2023-03-27T04:16:13.147Z,17.40
2023-03-27T04:18:41.345Z,17.50
2023-03-27T04:21:15.829Z,15.80
2023-03-27T04:23:42.665Z,16.93
2023-03-27T04:26:12.183Z,20.23
2023-03-27T04:28:39.692Z,17.53
2023-03-27T04:31:07.314Z,15.50
2023-03-27T04:33:34.706Z,17.10
2023-03-27T04:36:05.654Z,15.80
2023-03-27T04:38:39.267Z,15.70
2023-03-27T04:41:06.099Z,15.10
2023-03-27T04:43:36.720Z,15.50
2023-03-27T04:46:06.832Z,16.37
2023-03-27T04:48:34.525Z,16.10
2023-03-27T04:51:01.126Z,15.50
2023-03-27T04:53:30.370Z,15.33
2023-03-27T04:55:57.337Z,15.90
2023-03-27T04:58:25.826Z,15.47
2023-03-27T05:00:56.113Z,16.17
2023-03-27T05:03:27.904Z,15.47
2023-03-27T05:05:54.756Z,15.10
2023-03-27T05:08:21.552Z,14.43
2023-03-27T05:10:48.172Z,15.77
2023-03-27T05:13:14.829Z,16.73
2023-03-27T05:15:41.812Z,14.50
2023-03-27T05:18:09.115Z,16.20
2023-03-27T05:20:36.486Z,14.37
2023-03-27T05:23:04.613Z,15.70
2023-03-27T05:25:32.720Z,14.43
2023-03-27T05:28:00.643Z,14.67
2023-03-27T05:30:28.585Z,15.27
2023-03-27T05:32:59.377Z,16.67
2023-03-27T05:35:28.355Z,13.77
2023-03-27T05:37:56.187Z,14.47
2023-03-27T05:40:27.426Z,13.50
2023-03-27T05:42:55.601Z,13.10
2023-03-27T05:45:23.436Z,14.23
2023-03-27T05:47:51.944Z,14.60
2023-03-27T05:50:20.753Z,13.57
2023-03-27T05:52:47.684Z,14.37
2023-03-27T05:55:17.876Z,14.50
2023-03-27T05:57:44.374Z,14.03
2023-03-27T06:00:16.601Z,13.13
2023-03-27T06:02:44.946Z,12.67
2023-03-27T06:05:16.521Z,12.07
2023-03-27T06:07:43.860Z,12.57
2023-03-27T06:10:13.646Z,11.47
2023-03-27T06:12:41.648Z,11.47
2023-03-27T06:15:09.997Z,10.37
2023-03-27T06:17:39.575Z,9.70
2023-03-27T06:20:12.122Z,9.23
2023-03-27T06:22:46.776Z,8.57
2023-03-27T06:25:14.270Z,8.10
2023-03-27T06:27:45.471Z,7.63
2023-03-27T06:30:13.644Z,8.30
2023-03-27T06:32:47.460Z,8.20
2023-03-27T06:35:14.758Z,7.87
2023-03-27T06:37:42.794Z,8.00
2023-03-27T06:40:10.586Z,7.30
2023-03-27T06:42:38.506Z,7.63
2023-03-27T06:45:05.733Z,7.60
2023-03-27T06:47:36.394Z,8.03
2023-03-27T06:50:07.605Z,7.13
2023-03-27T06:52:34.156Z,6.13
2023-03-27T06:55:00.687Z,5.53
2023-03-27T06:57:27.278Z,5.00
2023-03-27T06:59:53.911Z,5.00
2023-03-27T07:02:20.629Z,4.07
2023-03-27T07:04:57.786Z,4.90
2023-03-27T07:07:31.280Z,4.43
2023-03-27T07:09:59.069Z,3.97
2023-03-27T07:12:26.173Z,4.37
2023-03-27T07:14:52.948Z,4.63
2023-03-27T07:17:19.738Z,4.87
2023-03-27T07:19:48.894Z,4.13
2023-03-27T07:22:16.089Z,3.97
2023-03-27T07:24:42.742Z,4.80
2023-03-27T07:27:09.948Z,5.20
2023-03-27T07:29:37.381Z,5.40
2023-03-27T07:32:08.047Z,4.87
2023-03-27T07:34:35.816Z,4.60
2023-03-27T07:37:02.790Z,4.67
2023-03-27T07:39:29.538Z,4.43
2023-03-27T07:41:56.115Z,3.50
2023-03-27T07:44:22.996Z,3.23
2023-03-27T07:46:52.191Z,3.40
2023-03-27T07:49:19.152Z,2.93
2023-03-27T07:51:46.427Z,3.20
2023-03-27T07:54:16.998Z,3.00
2023-03-27T07:56:43.768Z,2.90
2023-03-27T07:59:11.844Z,2.70
2023-03-27T08:01:38.471Z,2.50
2023-03-27T08:04:05.676Z,2.43
2023-03-27T08:06:32.664Z,2.80
2023-03-27T08:09:01.583Z,2.70
2023-03-27T08:11:30.933Z,3.07
2023-03-27T08:13:58.740Z,2.90
2023-03-27T08:16:29.126Z,2.40
2023-03-27T08:18:56.434Z,2.33
2023-03-27T08:21:23.870Z,2.67
2023-03-27T08:23:50.690Z,2.80
2023-03-27T08:26:18.168Z,2.23
2023-03-27T08:28:44.925Z,2.33
2023-03-27T08:31:15.305Z,2.40
2023-03-27T08:33:42.686Z,2.53
2023-03-27T08:36:11.619Z,2.30
2023-03-27T08:38:39.533Z,2.70
2023-03-27T08:41:06.926Z,2.43
2023-03-27T08:43:42.241Z,2.30
2023-03-27T08:46:22.528Z,2.10
2023-03-27T08:49:15.636Z,2.13
2023-03-27T08:51:49.457Z,2.60
2023-03-27T08:54:26.509Z,2.43
2023-03-27T08:56:53.313Z,2.73
2023-03-27T08:59:22.603Z,2.43
2023-03-27T09:02:01.406Z,1.93
2023-03-27T09:04:31.652Z,2.53
2023-03-27T09:07:05.170Z,1.90
2023-03-27T09:09:42.383Z,2.37
2023-03-27T09:12:27.053Z,2.53
2023-03-27T09:15:01.833Z,2.30
2023-03-27T09:17:38.273Z,2.80
2023-03-27T09:20:17.647Z,2.20
2023-03-27T09:22:48.573Z,2.13
2023-03-27T09:25:20.263Z,2.10
2023-03-27T09:27:48.477Z,2.47
2023-03-27T09:30:19.814Z,2.03
2023-03-27T09:32:51.714Z,2.40
2023-03-27T09:35:20.470Z,2.27
2023-03-27T09:37:49.106Z,2.57
2023-03-27T09:40:36.457Z,1.80
2023-03-27T09:43:28.119Z,2.73
2023-03-27T09:45:55.177Z,2.20
2023-03-27T09:48:27.471Z,2.27
2023-03-27T09:50:54.133Z,1.77
2023-03-27T09:53:23.105Z,1.67
2023-03-27T09:55:56.389Z,2.03
2023-03-27T09:58:35.877Z,1.50
2023-03-27T10:01:36.078Z,2.00
2023-03-27T10:04:13.108Z,2.10
2023-03-27T10:06:47.552Z,1.80
2023-03-27T10:09:26.795Z,2.00
2023-03-27T10:12:05.468Z,1.80
2023-03-27T10:14:35.191Z,1.87
2023-03-27T10:17:03.412Z,2.00
2023-03-27T10:19:33.874Z,2.10
2023-03-27T10:22:19.958Z,2.03
2023-03-27T10:24:47.618Z,1.93
2023-03-27T10:27:20.943Z,2.10
2023-03-27T10:29:47.543Z,2.20
2023-03-27T10:32:14.594Z,1.83
2023-03-27T10:34:51.900Z,1.67
2023-03-27T10:37:20.505Z,1.70
2023-03-27T10:39:47.749Z,1.63
2023-03-27T10:42:15.577Z,1.63
2023-03-27T10:44:43.768Z,2.40
2023-03-27T13:17:42.499Z,1.60
2023-03-27T13:20:45.313Z,1.40
2023-03-27T13:23:30.235Z,1.83
2023-03-27T13:26:18.530Z,1.60
2023-03-27T13:28:51.085Z,1.67
2023-03-27T13:31:46.140Z,1.50
2023-03-27T13:34:27.683Z,1.50
2023-03-27T13:37:06.442Z,1.73
2023-03-27T13:40:01.614Z,1.80
2023-03-27T13:42:34.849Z,1.40
2023-03-27T13:45:15.077Z,1.90
2023-03-27T13:48:08.749Z,1.60
2023-03-27T13:51:02.793Z,5.00
2023-03-27T13:53:44.307Z,1.53
2023-03-27T13:56:25.318Z,1.50
2023-03-27T13:59:28.883Z,1.17
2023-03-27T14:02:22.801Z,1.50
2023-03-27T14:04:57.843Z,1.37
2023-03-27T14:07:42.629Z,1.17
2023-03-27T14:10:33.805Z,1.20
2023-03-27T14:13:14.457Z,1.30
2023-03-27T14:15:46.591Z,1.70
2023-03-27T14:18:22.418Z,1.70
2023-03-27T14:20:53.479Z,1.37
2023-03-27T14:23:23.452Z,1.50
2023-03-27T14:26:01.946Z,1.50
2023-03-27T14:28:49.377Z,1.20
2023-03-27T14:31:19.603Z,2.13
2023-03-27T14:33:56.186Z,1.60
2023-03-27T14:36:30.233Z,1.47
2023-03-27T14:39:27.824Z,1.20
2023-03-27T14:41:54.552Z,1.17
2023-03-27T14:44:21.707Z,1.30
2023-03-27T14:46:48.971Z,1.13
2023-03-27T14:49:24.767Z,1.27
2023-03-27T14:51:53.470Z,1.10
2023-03-27T14:54:27.268Z,1.00
2023-03-27T14:56:57.083Z,1.17
2023-03-27T14:59:25.939Z,1.20
2023-03-27T15:01:56.629Z,1.57
2023-03-27T15:04:24.708Z,1.43
2023-03-27T15:06:56.000Z,1.30
2023-03-27T15:09:24.116Z,1.43
2023-03-27T15:11:55.656Z,1.10
2023-03-27T15:14:27.863Z,1.20
2023-03-27T15:17:00.670Z,1.03
2023-03-27T15:19:45.742Z,1.17
2023-03-27T15:22:29.716Z,1.10
2023-03-27T15:25:25.863Z,1.20
2023-03-27T15:27:56.111Z,1.30
2023-03-27T15:30:35.866Z,1.70
2023-03-27T15:33:04.418Z,1.30
2023-03-27T15:35:37.780Z,1.50
2023-03-27T15:38:06.642Z,1.40
2023-03-27T15:40:40.336Z,1.20
2023-03-27T15:43:08.745Z,1.77
2023-03-27T15:45:40.969Z,1.63
2023-03-27T15:48:21.813Z,1.57
2023-03-27T15:51:05.590Z,1.50
2023-03-27T15:53:38.034Z,1.40
2023-03-27T15:56:19.095Z,1.30
2023-03-27T15:59:01.553Z,1.23
2023-03-27T16:01:34.853Z,1.47
2023-03-27T16:04:07.322Z,1.70
2023-03-27T16:06:45.944Z,1.30
2023-03-27T16:09:27.291Z,1.53
2023-03-27T16:11:55.433Z,1.77
2023-03-27T16:14:29.411Z,1.37
2023-03-27T16:17:26.525Z,1.30
2023-03-27T16:20:02.028Z,1.50
2023-03-27T16:22:37.276Z,1.63
2023-03-27T16:25:10.139Z,1.50
2023-03-27T16:27:51.882Z,1.60
2023-03-27T16:30:32.403Z,1.40
2023-03-27T16:33:00.112Z,1.80
2023-03-27T16:35:28.234Z,1.80
2023-03-27T16:37:55.070Z,1.70
2023-03-27T16:40:21.728Z,1.50
2023-03-27T16:42:48.279Z,1.50
2023-03-27T16:45:14.943Z,1.60
2023-03-27T16:47:41.851Z,1.87
2023-03-27T16:50:24.984Z,2.10
2023-03-27T16:52:51.578Z,1.87
2023-03-27T16:55:18.631Z,1.70
2023-03-27T16:57:46.683Z,1.87
2023-03-27T17:00:15.712Z,1.40
2023-03-27T17:02:44.460Z,1.80
2023-03-27T17:05:11.505Z,1.70
2023-03-27T17:07:38.469Z,1.60
2023-03-27T17:10:05.443Z,1.67
2023-03-27T17:12:32.322Z,1.30
2023-03-27T17:14:59.036Z,1.93
2023-03-27T17:17:27.537Z,1.90
2023-03-27T17:19:54.357Z,1.53
2023-03-27T17:22:21.815Z,1.90
2023-03-27T17:24:56.527Z,2.07
2023-03-27T17:27:25.938Z,2.00
2023-03-27T17:29:52.551Z,1.73
2023-03-27T17:32:19.026Z,1.90
2023-03-27T17:34:45.710Z,1.60
2023-03-27T17:37:12.710Z,1.80
2023-03-27T17:39:39.678Z,1.67
2023-03-27T17:42:06.634Z,1.77
2023-03-27T17:44:33.213Z,1.80
2023-03-27T17:47:00.682Z,2.17
2023-03-27T17:49:29.795Z,2.00
2023-03-27T17:51:56.550Z,2.50
2023-03-27T17:54:23.514Z,2.70
2023-03-27T17:56:50.510Z,2.30
2023-03-27T17:59:17.123Z,2.20
2023-03-27T18:01:47.356Z,2.30
2023-03-27T18:04:14.274Z,2.70
2023-03-27T18:06:40.949Z,1.67
2023-03-27T18:09:09.610Z,1.80
2023-03-27T18:11:36.727Z,1.83
2023-03-27T18:14:04.237Z,1.90
2023-03-27T18:16:30.810Z,1.87
2023-03-27T18:18:57.890Z,1.40
2023-03-27T18:21:24.966Z,1.30
2023-03-27T18:23:53.436Z,1.80
2023-03-27T18:26:21.118Z,2.13
2023-03-27T18:28:47.716Z,1.80
2023-03-27T18:31:15.319Z,1.80
2023-03-27T18:33:42.048Z,1.50
2023-03-27T18:36:10.814Z,1.80
2023-03-27T18:38:42.107Z,1.90
2023-03-27T18:41:09.741Z,1.67
2023-03-27T18:43:36.636Z,1.90
2023-03-27T18:46:07.822Z,1.97
2023-03-27T18:48:35.433Z,2.50
2023-03-27T18:51:05.047Z,2.13
2023-03-27T18:53:31.641Z,1.90
2023-03-27T18:55:58.925Z,1.93
2023-03-27T18:58:27.695Z,2.20
2023-03-27T19:00:55.742Z,2.10
2023-03-27T19:03:24.314Z,2.37
2023-03-27T19:05:52.042Z,1.73
2023-03-27T19:08:19.897Z,1.83
2023-03-27T19:10:46.654Z,1.60
2023-03-27T19:13:13.243Z,2.00
2023-03-27T19:15:41.099Z,1.30
2023-03-27T19:18:08.129Z,1.60
2023-03-27T19:20:34.792Z,1.67
2023-03-27T19:23:01.467Z,1.10
2023-03-27T19:25:28.493Z,1.37
2023-03-27T19:27:55.137Z,1.20
2023-03-27T19:30:21.935Z,1.50
2023-03-27T19:32:50.220Z,1.80
2023-03-27T19:35:17.110Z,1.77
2023-03-27T19:37:43.716Z,1.37
2023-03-27T19:40:10.742Z,1.60
2023-03-27T19:42:37.319Z,1.73
2023-03-27T19:45:05.255Z,1.73
2023-03-27T19:47:32.312Z,1.70
2023-03-27T19:49:59.170Z,1.43
2023-03-27T19:52:26.233Z,1.90
2023-03-27T19:54:53.867Z,1.90
2023-03-27T19:57:20.964Z,1.50
2023-03-27T19:59:47.671Z,2.17
2023-03-27T20:02:14.546Z,1.90
2023-03-27T20:04:41.312Z,1.60
2023-03-27T20:07:08.220Z,1.70
2023-03-27T20:09:35.120Z,1.57
2023-03-27T20:12:04.287Z,1.93
2023-03-27T20:14:30.966Z,2.10
2023-03-27T20:16:57.645Z,1.73
2023-03-27T20:19:30.409Z,2.10
2023-03-27T20:21:57.683Z,1.60
2023-03-27T20:24:24.550Z,2.00
2023-03-27T20:26:53.845Z,1.80
2023-03-27T20:29:22.709Z,1.80
2023-03-27T20:31:49.612Z,1.93
2023-03-27T20:34:19.277Z,2.17
2023-03-27T20:36:46.058Z,2.07
2023-03-27T20:39:14.234Z,2.30
2023-03-27T20:41:41.099Z,2.23
2023-03-27T20:44:31.758Z,2.40
2023-03-27T20:47:06.410Z,2.57
2023-03-27T20:49:40.630Z,2.00
2023-03-27T20:52:09.540Z,2.47
2023-03-27T20:54:36.522Z,2.93
2023-03-27T20:57:03.988Z,2.20
2023-03-27T20:59:31.053Z,2.50
2023-03-27T21:01:58.016Z,2.67
2023-03-27T21:04:26.158Z,2.70
2023-03-27T21:06:56.310Z,4.20
2023-03-27T21:09:24.326Z,3.40
2023-03-27T21:11:51.573Z,2.50
2023-03-27T21:14:18.341Z,2.30
2023-03-27T21:16:44.955Z,3.07
2023-03-27T21:19:11.950Z,2.83
2023-03-27T21:21:38.879Z,2.80
2023-03-27T21:24:06.113Z,2.70
2023-03-27T21:26:33.450Z,2.60
2023-03-27T21:28:59.939Z,3.07
2023-03-27T21:31:26.597Z,2.90
2023-03-27T21:33:53.184Z,3.03
2023-03-27T21:36:20.001Z,2.90
2023-03-27T21:38:46.719Z,2.83
2023-03-27T21:41:14.547Z,2.70
2023-03-27T21:43:41.107Z,3.37
2023-03-27T21:46:07.914Z,3.10
2023-03-27T21:48:34.455Z,3.20
2023-03-27T21:51:03.025Z,3.40
2023-03-27T21:53:29.885Z,4.30
2023-03-27T21:55:57.467Z,4.13
2023-03-27T21:58:24.858Z,4.13
2023-03-27T22:00:51.352Z,4.30
2023-03-27T22:03:17.898Z,3.40
2023-03-27T22:05:49.119Z,3.03
2023-03-27T22:08:21.664Z,2.60
2023-03-27T22:10:48.374Z,3.00
2023-03-27T22:13:14.848Z,2.73
2023-03-27T22:15:41.590Z,3.37
2023-03-27T22:18:08.327Z,3.23
2023-03-27T22:20:34.824Z,4.00
2023-03-27T22:23:01.310Z,3.60
2023-03-27T22:25:27.975Z,3.37
2023-03-27T22:27:54.505Z,3.07
2023-03-27T22:30:21.081Z,3.90
2023-03-27T22:32:47.613Z,3.07
2023-03-27T22:35:14.144Z,3.27
2023-03-27T22:37:40.966Z,4.47
2023-03-27T22:40:08.060Z,5.57
2023-03-27T22:42:34.656Z,4.20
2023-03-27T22:45:01.368Z,4.00
2023-03-27T22:47:27.964Z,3.73
2023-03-27T22:49:54.443Z,4.63
2023-03-27T22:52:21.050Z,6.43
2023-03-27T22:54:47.568Z,7.43
2023-03-27T22:57:14.213Z,8.17
2023-03-27T22:59:41.252Z,9.40
2023-03-27T23:02:07.846Z,6.63
2023-03-27T23:04:34.668Z,4.97
2023-03-27T23:07:01.651Z,5.00
2023-03-27T23:09:28.156Z,4.57
2023-03-27T23:11:54.616Z,5.10
2023-03-27T23:14:21.176Z,5.47
2023-03-27T23:16:47.741Z,5.77
2023-03-27T23:19:14.234Z,5.40
2023-03-27T23:21:40.690Z,5.90
2023-03-27T23:24:07.426Z,5.20
2023-03-27T23:26:33.995Z,6.17
2023-03-27T23:29:00.575Z,5.70
2023-03-27T23:31:27.179Z,6.00
2023-03-27T23:33:53.773Z,6.03
2023-03-27T23:36:22.467Z,6.13
2023-03-27T23:38:49.694Z,5.80
2023-03-27T23:41:16.604Z,5.50
2023-03-27T23:43:43.158Z,6.13
2023-03-27T23:46:10.737Z,6.07
2023-03-27T23:48:41.967Z,6.10
2023-03-27T23:51:09.390Z,5.53
2023-03-27T23:53:36.373Z,5.60
2023-03-27T23:56:03.909Z,5.67
2023-03-27T23:58:32.848Z,5.73
